Time;durP1;ratioP1;P1;durP2;ratioP2;P2;SDS_P1;SDS_P2;PMS_P1;PMS_P2;Temp;Humidity;BMP_temperature;BMP_pressure;BME280_temperature;BME280_humidity;BME280_pressure;Samples;Min_cycle;Max_cycle;Signal;HPM_P1;HPM_P2
2022/08/03 00:00:40;;;;;;;2.08;1.45;;;22.30;96.40;;;22.93;91.51;100955.75;5185127;28;20053;-71
2022/08/03 00:03:12;;;;;;;2.97;1.60;;;22.30;96.60;;;22.88;91.99;100952.28;5185568;28;20486;-71
2022/08/03 00:05:45;;;;;;;1.77;1.50;;;22.30;96.80;;;22.81;92.55;100951.44;5184939;28;20120;-70
2022/08/03 00:08:18;;;;;;;2.10;1.52;;;22.20;97.10;;;22.77;93.00;100949.75;5184912;28;20050;-71
2022/08/03 00:10:50;;;;;;;3.00;1.83;;;22.20;97.30;;;22.72;93.37;100949.78;5184889;28;20398;-70
2022/08/03 00:13:22;;;;;;;2.58;1.30;;;22.10;97.50;;;22.70;93.80;100958.69;5184551;28;20111;-71
2022/08/03 00:15:54;;;;;;;2.15;1.80;;;22.10;97.80;;;22.70;93.22;100942.75;5184751;28;20038;-70
2022/08/03 00:18:26;;;;;;;2.78;1.75;;;22.00;97.70;;;22.71;92.75;100949.81;5184669;28;20042;-70
2022/08/03 00:21:00;;;;;;;2.92;2.03;;;22.10;97.70;;;22.69;92.09;100935.66;5167293;28;20413;-70
2022/08/03 00:23:33;;;;;;;2.55;1.52;;;22.10;97.60;;;22.68;92.27;100941.88;5188699;28;20546;-70
2022/08/03 00:26:06;;;;;;;2.60;1.92;;;22.00;97.60;;;22.64;92.53;100934.84;5188748;28;20503;-71
2022/08/03 00:28:38;;;;;;;1.83;1.55;;;22.00;97.70;;;22.61;92.08;100945.50;5188623;28;20045;-71
2022/08/03 00:31:10;;;;;;;2.20;1.58;;;22.00;97.60;;;22.58;91.56;100948.22;5171016;28;20085;-71
2022/08/03 00:33:42;;;;;;;2.75;2.05;;;21.90;97.50;;;22.55;91.26;100942.91;5171047;28;20401;-71
2022/08/03 00:36:16;;;;;;;1.60;1.50;;;21.90;97.40;;;22.52;91.89;100937.66;5188473;28;20121;-71
2022/08/03 00:38:48;;;;;;;2.10;1.58;;;21.90;97.60;;;22.46;92.41;100934.16;5188439;28;20124;-70
2022/08/03 00:41:20;;;;;;;2.40;1.60;;;21.90;97.80;;;22.41;93.13;100933.34;5188410;28;20049;-71
2022/08/03 00:43:52;;;;;;;2.13;1.55;;;21.80;98.00;;;22.35;93.74;100936.06;5188555;28;20049;-70
2022/08/03 00:46:24;;;;;;;1.80;1.50;;;21.80;98.50;;;22.29;94.23;100936.13;5188542;28;20069;-70
2022/08/03 00:48:56;;;;;;;2.40;1.45;;;21.70;98.40;;;22.26;94.43;100940.63;5188042;28;20046;-70
2022/08/03 00:51:30;;;;;;;1.58;1.48;;;21.70;98.60;;;22.23;94.76;100940.63;5188229;28;20049;-71
2022/08/03 00:54:02;;;;;;;1.92;1.60;;;21.60;98.70;;;22.19;95.00;100939.78;5188193;28;20042;-70
2022/08/03 01:00:46;;;;;;;3.30;1.90;;;21.50;99.10;;;22.06;96.31;100932.81;5144759;28;20153;-65
2022/08/03 01:03:18;;;;;;;2.17;1.50;;;21.50;99.70;;;22.02;97.07;100937.28;5135663;28;20046;-65
2022/08/03 01:05:57;;;;;;;2.30;1.63;;;21.50;99.80;;;21.99;97.38;100932.00;5142274;28;20043;-65
2022/08/03 01:08:41;;;;;;;2.30;1.60;;;21.40;99.90;;;21.95;97.82;100931.13;5127581;29;20054;-65
2022/08/03 01:14:04;;;;;;;1.60;1.30;;;21.30;99.90;;;21.88;98.36;100924.13;5239063;23;20511;-70
2022/08/03 01:16:43;;;;;;;2.22;1.67;;;21.30;99.90;;;21.84;98.43;100925.09;5185733;28;20092;-70
2022/08/03 01:19:44;;;;;;;1.80;1.50;;;21.30;99.90;;;21.81;98.87;100927.75;5187728;28;20061;-71
2022/08/03 01:22:40;;;;;;;3.08;1.98;;;21.30;99.90;;;21.77;98.76;100931.31;5187312;28;20046;-71
2022/08/03 01:25:31;;;;;;;2.22;1.48;;;21.20;99.90;;;21.71;99.02;100920.75;5187571;28;20050;-70
2022/08/03 01:28:25;;;;;;;2.13;1.60;;;21.20;99.90;;;21.66;99.28;100925.25;5187303;28;20117;-70
2022/08/03 01:31:05;;;;;;;2.80;1.63;;;21.10;99.90;;;21.62;99.79;100921.72;5187853;28;20046;-72
2022/08/03 01:33:42;;;;;;;2.75;2.08;;;21.10;99.90;;;21.59;100.00;100935.03;5187068;28;20415;-70
2022/08/03 01:36:19;;;;;;;2.45;1.70;;;21.00;99.90;;;21.58;100.00;100938.56;5187374;28;20048;-70
2022/08/03 01:39:01;;;;;;;2.95;1.90;;;21.00;99.90;;;21.56;100.00;100928.84;5187258;28;20073;-70
2022/08/03 01:41:36;;;;;;;1.95;1.55;;;21.00;99.90;;;21.52;100.00;100924.47;5187187;28;20050;-72
2022/08/03 01:44:11;;;;;;;2.53;1.77;;;20.90;99.90;;;21.48;100.00;100923.63;5202505;28;20145;-70
2022/08/03 01:46:48;;;;;;;2.20;1.80;;;20.90;99.90;;;21.45;100.00;100930.69;5187071;28;20054;-70
2022/08/03 01:49:20;;;;;;;2.40;1.73;;;20.90;99.90;;;21.43;100.00;100932.50;5202206;28;20046;-71
2022/08/03 01:51:54;;;;;;;2.90;1.80;;;20.90;99.90;;;21.38;100.00;100922.78;5187000;28;20133;-71
2022/08/03 01:54:28;;;;;;;2.75;1.75;;;20.80;99.90;;;21.34;100.00;100926.38;5186896;28;20124;-70
2022/08/03 01:57:00;;;;;;;2.88;1.83;;;20.80;99.90;;;21.30;100.00;100921.97;5186863;28;20048;-70
2022/08/03 01:59:35;;;;;;;2.38;1.70;;;20.80;99.90;;;21.28;100.00;100929.06;5186757;28;20162;-70
2022/08/03 02:02:12;;;;;;;3.15;2.00;;;20.70;99.90;;;21.23;100.00;100925.53;5186941;28;20052;-69
2022/08/03 02:04:47;;;;;;;2.92;1.80;;;20.70;99.90;;;21.21;100.00;100923.78;5202090;28;20045;-70
2022/08/03 02:07:20;;;;;;;3.22;2.00;;;20.70;99.90;;;21.16;100.00;100925.59;5186810;28;20125;-70
2022/08/03 02:09:55;;;;;;;2.28;1.83;;;20.60;99.90;;;21.12;100.00;100914.97;5186309;28;20490;-72
2022/08/03 02:12:31;;;;;;;2.88;1.80;;;20.60;99.90;;;21.09;100.00;100916.78;5186516;28;20042;-70
2022/08/03 02:15:06;;;;;;;3.33;2.10;;;20.60;99.90;;;21.05;100.00;100920.34;5187022;28;20516;-70
2022/08/03 02:17:39;;;;;;;2.53;1.83;;;20.50;99.90;;;21.06;100.00;100922.09;5186548;28;20045;-70
2022/08/03 02:20:13;;;;;;;2.55;2.00;;;20.50;99.90;;;21.05;100.00;100913.25;5186499;28;20067;-72
2022/08/03 02:22:47;;;;;;;4.72;2.00;;;20.50;99.90;;;21.06;100.00;100920.34;5186562;28;20057;-70
2022/08/03 02:25:19;;;;;;;2.85;2.08;;;20.50;99.90;;;21.08;100.00;100923.00;5185361;28;20121;-70
2022/08/03 02:27:56;;;;;;;2.30;1.67;;;20.50;99.90;;;21.06;100.00;100920.34;5186470;28;20038;-70
2022/08/03 02:30:37;;;;;;;3.40;2.00;;;20.50;99.90;;;21.04;100.00;100923.88;5186484;28;20045;-70
2022/08/03 02:33:17;;;;;;;2.65;1.90;;;20.50;99.90;;;21.00;100.00;100914.22;5184981;28;20046;-70
2022/08/03 02:35:51;;;;;;;3.65;1.90;;;20.50;99.90;;;20.98;100.00;100913.31;5186133;28;20046;-71
2022/08/03 02:38:30;;;;;;;2.33;1.98;;;20.50;99.90;;;20.97;100.00;100916.88;5186243;28;20132;-71
2022/08/03 02:41:09;;;;;;;2.90;1.92;;;20.50;99.90;;;20.95;100.00;100908.06;5186125;28;20053;-71
2022/08/03 02:43:43;;;;;;;2.20;1.50;;;20.40;99.90;;;20.93;100.00;100912.47;5186217;28;20132;-69
2022/08/03 02:46:19;;;;;;;2.58;1.77;;;20.40;99.90;;;20.93;100.00;100908.06;5185350;28;20491;-71
2022/08/03 02:48:55;;;;;;;2.20;1.88;;;20.40;99.90;;;20.92;100.00;100905.41;5186026;28;20049;-69
2022/08/03 02:51:30;;;;;;;3.47;1.88;;;20.40;99.90;;;20.92;100.00;100905.41;5185858;28;20127;-69
2022/08/03 02:54:04;;;;;;;2.65;1.80;;;20.40;99.90;;;20.89;100.00;100905.44;5185869;28;20034;-71
2022/08/03 02:56:37;;;;;;;2.40;1.75;;;20.40;99.90;;;20.86;100.00;100907.22;5185831;28;20088;-69
2022/08/03 02:59:11;;;;;;;2.17;1.75;;;20.40;99.90;;;20.83;100.00;100901.03;5185831;28;20046;-70
2022/08/03 03:01:44;;;;;;;1.73;1.63;;;20.30;99.90;;;20.79;100.00;100905.47;5185784;28;20065;-70
2022/08/03 03:04:19;;;;;;;2.75;1.83;;;20.30;99.90;;;20.74;100.00;100899.34;5185910;28;20050;-69
2022/08/03 03:06:51;;;;;;;3.47;1.90;;;20.30;99.90;;;20.71;100.00;100906.41;5185682;28;20048;-71
2022/08/03 03:09:24;;;;;;;4.13;2.10;;;20.20;99.90;;;20.68;100.00;100906.44;5185653;28;20058;-70
2022/08/03 03:11:57;;;;;;;3.08;2.03;;;20.10;99.90;;;20.65;100.00;100903.78;5184161;28;20525;-69
2022/08/03 03:14:30;;;;;;;2.53;1.75;;;20.10;99.90;;;20.59;100.00;100902.91;5185513;28;20049;-72
2022/08/03 03:17:03;;;;;;;2.33;1.90;;;20.10;99.90;;;20.58;100.00;100909.09;5185443;28;20064;-71
2022/08/03 03:19:39;;;;;;;2.63;1.80;;;20.10;99.90;;;20.57;100.00;100907.34;5185534;28;20068;-73
2022/08/03 03:22:13;;;;;;;3.17;1.83;;;20.10;99.90;;;20.57;100.00;100906.47;5184240;28;20526;-71
2022/08/03 03:24:47;;;;;;;2.75;1.80;;;20.10;99.90;;;20.59;100.00;100909.97;5185337;28;20104;-71
2022/08/03 03:27:19;;;;;;;2.72;2.00;;;20.10;99.90;;;20.62;100.00;100907.34;5185420;28;20045;-70
2022/08/03 03:29:52;;;;;;;2.92;2.10;;;20.10;99.90;;;20.63;100.00;100902.91;5185402;28;20751;-71
2022/08/03 03:32:26;;;;;;;3.28;2.03;;;20.10;99.90;;;20.63;100.00;100903.81;5185309;28;20576;-70
2022/08/03 03:35:00;;;;;;;3.35;2.30;;;20.10;99.90;;;20.63;100.00;100902.91;5185365;28;20399;-72
2022/08/03 03:37:32;;;;;;;4.32;1.95;;;20.10;99.90;;;20.63;100.00;100898.50;5183779;28;20566;-72
2022/08/03 03:40:07;;;;;;;3.08;2.10;;;20.10;99.90;;;20.61;100.00;100900.28;5185287;28;20056;-70
2022/08/03 03:42:40;;;;;;;2.55;1.80;;;20.20;99.90;;;20.63;100.00;100909.09;5185394;28;20041;-70
2022/08/03 03:45:13;;;;;;;2.63;1.90;;;20.20;99.90;;;20.64;100.00;100905.56;5185086;28;20092;-70
2022/08/03 03:47:45;;;;;;;2.60;1.90;;;20.20;99.90;;;20.64;100.00;100905.56;5184953;28;20045;-71
2022/08/03 03:50:20;;;;;;;2.70;2.00;;;20.20;99.90;;;20.64;100.00;100908.19;5185180;28;20124;-71
2022/08/03 03:52:52;;;;;;;2.72;1.80;;;20.20;99.90;;;20.63;100.00;100909.09;5184636;28;20061;-70
2022/08/03 03:55:24;;;;;;;2.35;1.92;;;20.20;99.90;;;20.61;100.00;100910.88;5184742;28;20046;-70
2022/08/03 03:57:57;;;;;;;2.47;1.60;;;20.10;99.90;;;20.58;100.00;100906.47;5187364;28;20054;-70
2022/08/03 04:00:29;;;;;;;2.50;1.77;;;20.10;99.90;;;20.58;100.00;100906.47;5189075;28;20049;-71
2022/08/03 04:03:01;;;;;;;2.42;1.63;;;20.10;99.90;;;20.57;100.00;100915.28;5189301;28;20132;-72
2022/08/03 04:11:20;;;;;;;1.85;1.63;;;20.00;99.90;;;20.50;100.00;100918.84;5189019;28;20054;-70
2022/08/03 04:13:56;;;;;;;2.78;1.77;;;20.00;99.90;;;20.47;100.00;100913.56;5189107;28;20104;-70
2022/08/03 04:16:35;;;;;;;2.28;1.63;;;20.00;99.90;;;20.45;100.00;100912.69;5204030;28;20041;-71
2022/08/03 04:19:10;;;;;;;2.97;2.00;;;20.00;99.90;;;20.45;100.00;100912.69;5188875;28;20049;-70
2022/08/03 04:21:49;;;;;;;2.35;1.70;;;20.00;99.90;;;20.42;100.00;100906.50;5188840;28;20045;-70
2022/08/03 04:24:22;;;;;;;2.47;1.83;;;19.90;99.90;;;20.41;100.00;100910.03;5204219;28;20046;-72
2022/08/03 04:26:56;;;;;;;3.10;2.10;;;19.90;99.90;;;20.39;100.00;100919.75;5188738;28;20052;-70
2022/08/03 04:29:31;;;;;;;2.67;1.63;;;19.90;99.90;;;20.39;100.00;100914.44;5203985;28;20172;-70
2022/08/03 04:32:05;;;;;;;2.72;2.03;;;19.90;99.90;;;20.39;100.00;100923.28;5203745;28;20049;-70
2022/08/03 04:34:38;;;;;;;2.65;1.92;;;19.90;99.90;;;20.39;100.00;100920.63;5188707;28;20046;-71
2022/08/03 04:37:17;;;;;;;2.10;1.80;;;19.90;99.90;;;20.40;100.00;100930.31;5188332;28;20045;-70
2022/08/03 04:39:50;;;;;;;2.78;1.92;;;19.90;99.90;;;20.40;100.00;100926.78;5188607;28;20389;-70
2022/08/03 04:42:24;;;;;;;3.95;2.20;;;19.90;99.90;;;20.41;100.00;100931.19;5188353;28;20046;-70
2022/08/03 04:44:58;;;;;;;2.35;1.80;;;19.90;99.90;;;20.41;100.00;100926.81;5188473;28;20550;-70
2022/08/03 04:47:33;;;;;;;2.92;1.80;;;19.90;99.90;;;20.43;100.00;100932.97;5188132;28;20053;-72
2022/08/03 04:50:07;;;;;;;2.95;1.92;;;19.90;99.90;;;20.45;100.00;100935.66;5188453;28;20049;-70
2022/08/03 04:52:41;;;;;;;;;;;20.00;99.90;;;20.47;100.00;100936.50;5203816;28;20046;-70
2022/08/03 04:55:13;;;;;;;3.90;2.38;;;20.00;99.90;;;20.50;100.00;100933.88;5188589;28;20008;-69
2022/08/03 04:57:45;;;;;;;3.92;2.33;;;20.00;99.90;;;20.54;100.00;100930.34;5187755;28;20132;-70
2022/08/03 05:00:18;;;;;;;4.40;2.10;;;20.00;99.90;;;20.68;100.00;100922.31;5188144;28;20049;-72
2022/08/03 05:02:52;;;;;;;3.67;2.28;;;20.20;99.90;;;20.94;100.00;100940.75;5186658;28;20085;-71
2022/08/03 05:05:24;;;;;;;3.45;2.25;;;20.40;99.90;;;21.15;100.00;100940.59;5188072;28;20146;-73
2022/08/03 05:07:58;;;;;;;4.18;2.20;;;20.60;99.90;;;21.28;99.40;100937.03;5185816;28;20045;-72
2022/08/03 05:10:30;;;;;;;3.00;2.20;;;20.70;99.90;;;21.33;98.45;100935.22;5188286;28;20498;-71
2022/08/03 05:13:03;;;;;;;3.35;2.17;;;20.80;99.90;;;21.34;97.61;100934.31;5187779;28;20037;-71
2022/08/03 05:15:35;;;;;;;4.25;2.30;;;20.80;99.90;;;21.37;97.23;100931.63;5203137;28;20065;-72
2022/08/03 05:18:07;;;;;;;3.55;2.17;;;20.90;99.90;;;21.48;97.10;100928.03;5187557;28;20070;-74
2022/08/03 05:20:39;;;;;;;3.88;1.92;;;21.00;99.90;;;21.74;97.50;100939.31;5187810;28;20064;-72
2022/08/03 05:23:13;;;;;;;4.40;2.70;;;21.20;99.90;;;22.14;95.28;100936.31;5187959;28;20050;-74
2022/08/03 05:25:45;;;;;;;3.00;2.65;;;21.50;99.90;;;22.67;92.15;100937.47;5187488;28;20506;-75
2022/08/03 05:28:17;;;;;;;3.35;2.10;;;21.90;99.90;;;23.22;88.82;100948.25;5187566;28;20046;-75
2022/08/03 05:30:49;;;;;;;3.45;2.30;;;22.40;99.20;;;23.83;85.67;100941.97;5202708;28;20038;-74
2022/08/03 05:33:21;;;;;;;3.53;2.00;;;23.00;98.30;;;24.34;82.83;100941.94;5187418;28;20565;-74
2022/08/03 05:35:54;;;;;;;3.47;2.10;;;23.40;97.00;;;24.73;80.28;100935.84;5187326;28;20045;-73
2022/08/03 05:38:28;;;;;;;2.75;2.13;;;23.90;95.80;;;25.16;77.87;100951.78;5187195;28;20037;-72
2022/08/03 05:41:00;;;;;;;4.22;2.15;;;24.30;94.80;;;25.63;76.11;100948.00;5187284;28;20124;-74
2022/08/03 05:43:32;;;;;;;4.13;2.20;;;24.70;93.90;;;26.13;74.05;100948.50;5187175;28;20049;-73
2022/08/03 05:46:04;;;;;;;3.70;1.90;;;25.10;92.80;;;26.57;73.00;100948.22;5187080;28;20038;-75
2022/08/03 05:48:36;;;;;;;3.38;2.10;;;25.60;92.10;;;26.91;70.33;100948.97;5187111;28;20149;-72
2022/08/03 05:51:10;;;;;;;3.55;2.10;;;25.90;90.70;;;27.24;68.80;100947.06;5186867;28;20073;-72
2022/08/03 05:53:45;;;;;;;3.13;2.40;;;26.20;89.50;;;27.53;67.19;100953.31;5187113;28;20399;-73
2022/08/03 05:56:17;;;;;;;5.00;2.42;;;26.50;87.40;;;27.83;66.67;100956.75;5186787;28;20050;-74
2022/08/03 05:58:50;;;;;;;2.50;2.10;;;26.70;86.00;;;27.99;65.90;100965.16;5202252;28;20042;-71
2022/08/03 06:01:22;;;;;;;2.83;2.22;;;26.90;84.80;;;28.19;65.20;100962.66;5186834;28;20053;-71
2022/08/03 06:03:54;;;;;;;2.85;2.30;;;27.10;83.60;;;28.42;63.85;100955.63;5187183;28;20053;-72
2022/08/03 06:06:27;;;;;;;3.03;2.20;;;27.30;81.70;;;28.64;63.13;100960.16;5186703;28;20128;-72
2022/08/03 06:09:00;;;;;;;3.90;2.20;;;27.60;80.50;;;28.76;62.32;100961.50;5186912;28;20503;-72
2022/08/03 06:11:32;;;;;;;3.53;2.20;;;27.70;79.00;;;28.94;62.76;100959.91;5186364;28;20069;-71
2022/08/03 06:14:05;;;;;;;3.65;2.10;;;27.80;79.20;;;29.15;61.46;100963.59;5202019;28;20050;-71
2022/08/03 06:16:37;;;;;;;2.80;2.08;;;28.00;77.70;;;29.34;61.65;100959.25;5186340;28;20108;-71
2022/08/03 06:19:09;;;;;;;2.45;1.88;;;28.20;77.50;;;29.45;60.75;100965.03;5186047;28;20507;-71
2022/08/03 06:21:41;;;;;;;6.20;2.17;;;28.40;76.80;;;29.31;60.61;100959.34;5186253;28;20133;-71
2022/08/03 06:24:15;;;;;;;4.43;1.95;;;28.40;75.40;;;29.25;60.87;100964.09;5186505;28;20352;-71
2022/08/03 06:26:47;;;;;;;3.08;2.00;;;28.30;75.10;;;29.24;61.04;100965.91;5186281;28;20049;-54
2022/08/03 06:29:19;;;;;;;3.63;1.83;;;28.30;75.00;;;29.06;61.29;100969.31;5186490;28;20124;-54
2022/08/03 06:31:51;;;;;;;2.42;1.90;;;28.20;75.00;;;28.76;61.61;100969.53;5186259;28;20041;-53
2022/08/03 06:34:24;;;;;;;3.28;1.80;;;27.90;75.10;;;28.34;62.34;100974.66;5186260;28;20131;-55
2022/08/03 06:36:56;;;;;;;5.25;2.03;;;27.60;75.10;;;27.93;62.96;100970.75;5186323;28;20053;-53
2022/08/03 06:39:29;;;;;;;4.07;1.98;;;27.30;75.70;;;27.43;64.18;100974.13;5186213;28;20132;-54
2022/08/03 06:42:02;;;;;;;2.15;1.90;;;26.90;76.20;;;27.16;65.40;100969.66;5186007;28;20046;-53
2022/08/03 06:44:36;;;;;;;2.90;1.90;;;26.60;77.50;;;27.02;66.16;100978.06;5186440;28;20056;-55
2022/08/03 06:47:08;;;;;;;2.47;1.90;;;26.40;78.20;;;26.96;66.94;100972.91;5185540;28;20052;-73
2022/08/03 06:49:40;;;;;;;6.20;2.00;;;26.30;79.20;;;26.99;67.19;100973.66;5181772;28;20041;-74
2022/08/03 06:52:13;;;;;;;3.47;1.90;;;26.30;79.80;;;27.06;67.27;100969.06;5188754;28;20053;-71
2022/08/03 06:54:46;;;;;;;3.33;2.50;;;26.30;80.00;;;27.13;67.31;100975.97;5185839;28;20406;-72
2022/08/03 06:57:18;;;;;;;5.20;2.55;;;26.30;80.20;;;27.18;67.02;100963.31;5185535;28;20405;-67
2022/08/03 06:59:51;;;;;;;4.38;2.10;;;26.30;80.00;;;27.10;66.76;100968.03;5185852;28;20084;-67
2022/08/03 07:02:23;;;;;;;4.70;2.30;;;26.30;79.70;;;27.13;66.96;100970.63;5185715;28;20046;-72
2022/08/03 07:04:55;;;;;;;3.83;2.30;;;26.40;79.70;;;27.26;67.04;100966.66;5185855;28;20073;-72
2022/08/03 07:07:27;;;;;;;3.00;1.80;;;26.50;80.10;;;27.34;66.11;100962.84;5185805;28;20045;-72
2022/08/03 07:10:01;;;;;;;2.53;1.80;;;26.50;79.30;;;27.35;65.98;100967.28;5185939;28;20052;-72
2022/08/03 07:12:34;;;;;;;2.75;1.98;;;26.60;79.10;;;27.47;65.86;100964.22;5185402;28;20042;-72
2022/08/03 07:15:09;;;;;;;1.90;1.67;;;26.60;79.10;;;27.62;66.01;100971.72;5177638;23;20039;-70
2022/08/03 07:17:41;;;;;;;3.38;1.80;;;26.70;79.20;;;27.77;65.55;100973.91;5156534;28;20169;-71
2022/08/03 07:20:14;;;;;;;2.30;1.80;;;26.90;79.50;;;27.84;65.06;100970.13;5164148;28;20085;-70
2022/08/03 07:22:46;;;;;;;4.32;1.90;;;27.00;78.40;;;27.92;64.79;100974.34;5163881;28;20046;-70
2022/08/03 07:25:20;;;;;;;2.03;1.55;;;27.00;78.10;;;28.04;64.88;100976.63;5156980;28;20073;-70
2022/08/03 07:27:52;;;;;;;3.20;2.00;;;27.10;78.00;;;28.20;65.12;100975.13;5164023;28;20507;-71
2022/08/03 07:30:24;;;;;;;2.20;2.00;;;27.20;78.20;;;28.41;64.06;100969.97;5147836;28;20043;-71
2022/08/03 07:32:56;;;;;;;2.50;2.00;;;27.40;77.60;;;28.58;63.03;100975.59;5160577;28;20045;-71
2022/08/03 07:35:28;;;;;;;2.53;2.28;;;27.60;76.70;;;28.66;62.86;100982.41;5147638;28;20418;-72
2022/08/03 07:38:01;;;;;;;4.60;2.28;;;27.70;75.90;;;28.76;62.32;100982.94;5144776;28;20399;-71
2022/08/03 07:40:34;;;;;;;2.58;2.15;;;27.80;75.50;;;28.89;62.07;100976.19;5145083;28;20451;-69
2022/08/03 07:43:06;;;;;;;4.43;1.92;;;27.90;75.20;;;29.03;61.49;100969.44;5143580;28;20046;-70
2022/08/03 07:45:39;;;;;;;3.22;2.03;;;28.00;74.70;;;29.22;61.76;100965.09;5145220;28;20133;-70
2022/08/03 07:48:11;;;;;;;3.25;1.90;;;28.10;75.10;;;29.41;61.13;100971.47;5144894;28;20042;-71
2022/08/03 07:50:43;;;;;;;2.55;1.90;;;28.30;74.20;;;29.58;60.62;100972.63;5145016;28;20049;-70
2022/08/03 07:53:15;;;;;;;3.13;1.83;;;28.40;73.80;;;29.76;59.94;100977.22;5161772;28;20443;-70
2022/08/03 07:55:49;;;;;;;3.33;1.80;;;28.60;73.30;;;29.95;59.16;100975.50;5151612;28;20093;-70
2022/08/03 07:58:22;;;;;;;3.20;2.10;;;28.70;72.60;;;30.12;58.63;100979.31;5160838;28;20399;-72
2022/08/03 08:00:54;;;;;;;2.95;2.33;;;28.90;72.10;;;30.38;58.25;100970.97;5145180;28;20407;-71
2022/08/03 08:03:26;;;;;;;3.38;1.63;;;29.00;71.70;;;30.66;58.30;100975.13;5157896;28;20125;-71
2022/08/03 08:05:58;;;;;;;2.47;1.85;;;29.30;71.50;;;31.02;57.63;100968.03;5163055;28;20042;-70
2022/08/03 08:08:31;;;;;;;2.63;1.95;;;29.50;71.30;;;31.40;56.99;100962.66;5155016;28;20066;-71
2022/08/03 08:11:04;;;;;;;2.50;1.80;;;29.70;71.30;;;31.83;56.08;100965.94;5144641;28;20496;-71
2022/08/03 08:13:37;;;;;;;2.85;1.75;;;30.00;70.10;;;32.27;54.40;100968.13;5144562;28;20057;-71
2022/08/03 08:16:09;;;;;;;3.35;1.70;;;30.30;68.60;;;32.75;53.36;100963.78;5144453;28;20079;-73
2022/08/03 08:18:41;;;;;;;2.17;1.80;;;30.60;67.80;;;33.11;52.46;100968.97;5143146;28;20419;-71
2022/08/03 08:21:13;;;;;;;2.08;1.50;;;30.80;67.50;;;33.71;51.75;100963.72;5144638;28;20047;-72
2022/08/03 08:23:46;;;;;;;2.65;1.70;;;31.10;66.60;;;34.17;50.64;100956.47;5144432;28;20126;-72
2022/08/03 08:26:19;;;;;;;2.40;1.48;;;31.40;65.50;;;34.99;49.89;100965.78;5144374;28;20042;-72
2022/08/03 08:28:52;;;;;;;1.67;1.33;;;31.80;65.30;;;35.82;48.58;100961.19;5144867;28;20042;-71
2022/08/03 08:31:24;;;;;;;3.38;1.70;;;32.30;64.50;;;36.69;47.85;100957.81;5164446;28;20062;-71
2022/08/03 08:33:56;;;;;;;2.83;1.50;;;32.70;64.00;;;37.66;46.48;100967.91;5164410;28;20129;-71
2022/08/03 08:36:28;;;;;;;5.05;1.67;;;33.30;63.20;;;38.58;44.27;100968.94;5164257;28;20046;-71
2022/08/03 08:39:01;;;;;;;2.92;1.55;;;33.70;61.10;;;39.55;42.72;100958.16;5164065;28;20117;-71
2022/08/03 08:41:35;;;;;;;2.40;1.70;;;34.40;59.50;;;40.45;41.36;100960.44;5164360;28;20046;-71
2022/08/03 08:44:09;;;;;;;1.52;1.42;;;35.20;57.40;;;41.33;40.49;100969.88;5166940;28;20113;-72
2022/08/03 08:46:41;;;;;;;2.28;1.33;;;36.00;56.50;;;42.13;39.31;100966.03;5167920;28;20050;-72
2022/08/03 08:49:18;;;;;;;2.53;1.55;;;36.80;55.00;;;42.78;38.85;100975.25;5167818;28;20045;-72
2022/08/03 08:51:52;;;;;;;2.08;1.40;;;37.60;53.30;;;43.28;37.91;100975.69;5161337;28;20046;-72
2022/08/03 08:54:25;;;;;;;3.00;1.38;;;38.20;52.10;;;43.82;36.83;100973.00;5167683;28;20051;-72
2022/08/03 08:57:02;;;;;;;;;;;38.80;50.80;;;43.97;36.08;100976.94;5168083;28;20051;-72
2022/08/03 08:59:35;;;;;;;2.30;1.30;;;39.10;49.20;;;44.31;35.90;100974.28;5166617;28;19926;-72
2022/08/03 09:02:07;;;;;;;2.67;1.50;;;39.40;48.80;;;44.44;35.74;100970.25;5167539;28;20144;-72
2022/08/03 09:04:40;;;;;;;1.95;1.38;;;39.70;48.30;;;44.48;35.67;100974.41;5165845;28;20069;-73
2022/08/03 09:07:12;;;;;;;4.22;1.10;;;39.70;48.10;;;44.58;35.86;100965.03;5159514;28;20125;-72
2022/08/03 09:09:44;;;;;;;2.53;1.35;;;39.80;48.20;;;44.73;35.42;100967.16;5166272;28;20426;-72
2022/08/03 09:12:18;;;;;;;1.73;1.30;;;39.90;47.40;;;44.81;34.37;100968.06;5167432;28;20559;-72
2022/08/03 09:14:50;;;;;;;1.30;1.08;;;40.00;46.40;;;44.89;34.77;100969.97;5165932;28;20050;-72
2022/08/03 09:17:22;;;;;;;2.40;1.10;;;40.10;46.30;;;45.05;34.48;100971.94;5167335;28;20042;-72
2022/08/03 09:20:07;;;;;;;1.73;1.30;;;40.40;46.20;;;45.03;34.43;100968.50;5167326;28;20475;-72
2022/08/03 09:22:57;;;;;;;2.20;1.35;;;40.50;45.90;;;44.61;34.98;100958.34;5167702;28;20129;-72
2022/08/03 09:25:32;;;;;;;1.02;0.80;;;40.50;45.90;;;44.02;35.82;100954.50;5167339;28;20053;-71
2022/08/03 09:28:12;;;;;;;2.72;1.40;;;40.30;46.40;;;43.22;36.38;100948.88;5166955;28;20069;-73
2022/08/03 09:30:46;;;;;;;2.33;1.23;;;39.90;46.50;;;42.52;37.27;100944.91;5167193;28;20050;-77
2022/08/03 09:33:18;;;;;;;1.77;1.20;;;39.60;46.90;;;41.84;37.43;100949.63;5166966;28;20404;-72
2022/08/03 09:35:50;;;;;;;1.70;1.20;;;39.30;47.20;;;40.95;38.43;100938.69;5166841;28;20064;-73
2022/08/03 09:38:25;;;;;;;4.07;1.35;;;38.90;47.50;;;39.91;39.37;100939.69;5162157;28;20042;-72
2022/08/03 09:40:57;;;;;;;2.00;1.40;;;38.20;47.80;;;39.09;40.58;100937.47;5167060;28;20046;-72
2022/08/03 09:43:47;;;;;;;1.25;1.00;;;37.60;48.90;;;38.44;41.76;100934.63;5166536;28;20046;-71
2022/08/03 09:46:19;;;;;;;3.17;1.45;;;37.00;49.70;;;38.08;42.05;100932.94;5148848;28;20046;-71
2022/08/03 09:48:51;;;;;;;2.42;1.15;;;36.60;50.00;;;37.71;42.50;100935.78;5145395;28;20225;-73
2022/08/03 09:51:25;;;;;;;1.60;1.23;;;36.30;50.50;;;37.44;43.21;100934.19;5146819;28;20131;-72
2022/08/03 09:54:00;;;;;;;2.42;1.48;;;36.00;50.80;;;37.30;43.75;100926.19;5146604;28;20073;-72
2022/08/03 09:56:44;;;;;;;1.98;1.27;;;35.90;51.50;;;37.12;44.34;100925.72;5144947;28;20054;-72
2022/08/03 09:59:27;;;;;;;2.78;1.60;;;35.70;52.10;;;37.03;44.57;100928.22;5146760;28;20471;-72
2022/08/03 10:02:00;;;;;;;2.67;1.20;;;35.60;52.30;;;36.90;44.83;100929.13;5152073;28;20042;-71
2022/08/03 10:04:32;;;;;;;2.25;1.30;;;35.50;52.40;;;36.73;44.02;100925.91;5179510;28;20438;-71
2022/08/03 10:07:08;;;;;;;2.42;1.23;;;35.40;51.60;;;36.56;43.84;100927.97;5146244;28;20471;-71
2022/08/03 10:09:55;;;;;;;1.48;0.98;;;35.20;51.70;;;36.53;43.74;100928.22;5146469;28;20058;-71
2022/08/03 10:12:29;;;;;;;2.13;1.20;;;35.10;51.50;;;36.54;44.86;100920.94;5146226;28;20109;-72
2022/08/03 10:15:04;;;;;;;3.08;1.40;;;35.10;52.10;;;36.47;44.29;100906.94;5146191;28;20339;-72
2022/08/03 10:17:37;;;;;;;2.75;1.33;;;35.10;52.70;;;36.30;43.73;100907.22;5145994;28;20050;-71
2022/08/03 10:20:11;;;;;;;2.05;1.17;;;34.90;51.30;;;36.13;44.43;100916.59;5144911;28;20039;-71
2022/08/03 10:22:43;;;;;;;3.97;1.30;;;34.90;51.70;;;36.10;45.07;100911.34;5146160;28;20057;-71
2022/08/03 10:25:16;;;;;;;3.17;1.20;;;34.80;52.50;;;36.11;45.06;100913.94;5146082;28;20102;-71
2022/08/03 10:27:53;;;;;;;1.58;1.00;;;34.80;52.50;;;36.18;45.11;100914.38;5145575;28;20068;-72
2022/08/03 10:30:28;;;;;;;1.55;1.20;;;34.80;52.60;;;36.31;44.85;100908.97;5145760;28;20525;-71
2022/08/03 10:33:05;;;;;;;2.03;1.10;;;34.90;52.60;;;36.37;44.03;100897.66;5145829;28;20507;-71
2022/08/03 10:35:40;;;;;;;1.45;1.05;;;34.90;52.00;;;36.44;44.83;100892.69;5148488;28;20122;-71
2022/08/03 10:38:18;;;;;;;2.80;1.17;;;34.90;52.20;;;36.56;45.03;100886.38;5160923;28;20069;-71
2022/08/03 10:40:54;;;;;;;1.80;1.15;;;35.00;52.40;;;36.70;44.18;100894.38;5162633;28;20052;-72
2022/08/03 10:43:34;;;;;;;1.08;0.95;;;35.10;52.10;;;36.78;43.60;100886.56;5163369;28;20061;-71
2022/08/03 10:46:08;;;;;;;1.77;1.17;;;35.30;51.50;;;36.79;43.63;100879.28;5161770;28;20483;-71
2022/08/03 10:48:41;;;;;;;2.05;1.10;;;35.30;51.60;;;36.79;43.96;100882.88;5162420;28;20554;-73
2022/08/03 10:51:14;;;;;;;2.35;1.40;;;35.30;51.80;;;36.77;43.88;100873.06;5165514;28;20050;-72